createdAt,value
2018-12-17T00:00:07.020Z,5.1
2018-12-17T00:01:07.016Z,5.3
2018-12-17T00:02:06.948Z,4.9
2018-12-17T00:03:06.962Z,4.8
2018-12-17T00:04:06.959Z,5.2
2018-12-17T00:05:07.002Z,4.7
2018-12-17T00:06:07.003Z,5.1
2018-12-17T00:07:07.195Z,5.0
2018-12-17T00:08:06.951Z,4.9
2018-12-17T00:09:07.451Z,5.0
2018-12-17T00:10:07.073Z,5.0
2018-12-17T00:11:06.988Z,5.8
2018-12-17T00:12:07.459Z,4.6
2018-12-17T00:13:06.970Z,5.2
2018-12-17T00:14:07.207Z,4.9
2018-12-17T00:15:06.995Z,5.1
2018-12-17T00:16:07.224Z,5.0
2018-12-17T00:17:07.227Z,5.2
2018-12-17T00:18:07.284Z,5.0
2018-12-17T00:19:07.007Z,4.8
2018-12-17T00:20:07.222Z,4.9
2018-12-17T00:21:07.491Z,5.0
2018-12-17T00:22:07.058Z,5.0
2018-12-17T00:23:07.463Z,5.0
2018-12-17T00:24:07.336Z,5.2
2018-12-17T00:25:07.243Z,4.9
2018-12-17T00:26:07.039Z,5.0
2018-12-17T00:27:07.031Z,5.2
2018-12-17T00:28:08.092Z,5.1
2018-12-17T00:29:07.223Z,4.9
2018-12-17T00:30:07.035Z,5.1
2018-12-17T00:31:07.224Z,5.0
2018-12-17T00:32:07.449Z,5.2
2018-12-17T00:33:07.475Z,5.2
2018-12-17T00:34:07.758Z,5.3
2018-12-17T00:35:07.081Z,4.9
2018-12-17T00:36:07.066Z,5.0
2018-12-17T00:37:07.510Z,5.1
2018-12-17T00:38:07.065Z,4.9
2018-12-17T00:39:07.128Z,4.9
2018-12-17T00:40:07.508Z,4.8
2018-12-17T00:41:07.274Z,5.2
2018-12-17T00:42:07.227Z,4.8
2018-12-17T00:43:07.137Z,5.1
2018-12-17T00:44:07.082Z,5.3
2018-12-17T00:45:07.062Z,4.6
2018-12-17T00:46:07.049Z,5.2
2018-12-17T00:47:07.207Z,4.9
2018-12-17T00:48:07.070Z,4.8
2018-12-17T00:49:07.521Z,5.0
2018-12-17T00:50:07.159Z,4.8
2018-12-17T00:51:07.049Z,5.2
2018-12-17T00:52:07.252Z,5.2
2018-12-17T00:53:07.046Z,5.1
2018-12-17T00:54:07.576Z,5.1
2018-12-17T00:55:07.558Z,5.0
2018-12-17T00:56:07.076Z,4.7
2018-12-17T00:57:07.063Z,5.2
2018-12-17T00:58:07.505Z,5.3
2018-12-17T00:59:07.284Z,5.2
2018-12-17T01:00:07.532Z,4.6
2018-12-17T01:01:07.097Z,5.0
2018-12-17T01:02:07.524Z,4.8
2018-12-17T01:03:07.560Z,4.4
2018-12-17T01:04:07.258Z,4.9
2018-12-17T01:05:07.402Z,4.7
2018-12-17T01:06:07.145Z,4.8
2018-12-17T01:07:07.523Z,4.8
2018-12-17T01:08:07.281Z,5.0
2018-12-17T01:09:07.180Z,5.1
2018-12-17T01:10:07.566Z,5.3
2018-12-17T01:11:07.340Z,5.0
2018-12-17T01:12:07.143Z,4.8
2018-12-17T01:13:07.335Z,4.7
2018-12-17T01:14:07.155Z,4.5
2018-12-17T01:15:07.119Z,4.9
2018-12-17T01:16:07.337Z,4.7
2018-12-17T01:17:07.116Z,4.8
2018-12-17T01:18:07.294Z,4.9
2018-12-17T01:19:07.309Z,4.8
2018-12-17T01:20:07.168Z,4.8
2018-12-17T01:21:07.599Z,4.6
2018-12-17T01:22:07.167Z,4.8
2018-12-17T01:23:07.563Z,5.0
2018-12-17T01:24:07.446Z,4.8
2018-12-17T01:25:07.379Z,4.8
2018-12-17T01:26:07.610Z,4.8
2018-12-17T01:27:07.221Z,4.7
2018-12-17T01:28:07.109Z,4.4
2018-12-17T01:29:07.306Z,4.8
2018-12-17T01:30:07.244Z,4.8
2018-12-17T01:31:07.165Z,4.4
2018-12-17T01:32:07.119Z,4.6
2018-12-17T01:33:07.390Z,4.6
2018-12-17T01:34:07.208Z,4.6
2018-12-17T01:35:07.187Z,4.6
2018-12-17T01:36:07.395Z,4.7
2018-12-17T01:37:07.373Z,4.5
2018-12-17T01:38:07.593Z,4.6
2018-12-17T01:39:07.413Z,4.5
2018-12-17T01:40:07.232Z,4.7
2018-12-17T01:41:07.348Z,4.5
2018-12-17T01:42:07.193Z,4.9
2018-12-17T01:43:07.242Z,4.7
2018-12-17T01:44:07.225Z,4.4
2018-12-17T01:45:07.198Z,4.6
2018-12-17T01:46:07.610Z,4.4
2018-12-17T01:47:07.171Z,4.5
2018-12-17T01:48:07.593Z,4.5
2018-12-17T01:49:07.423Z,4.5
2018-12-17T01:50:07.628Z,4.6
2018-12-17T01:51:07.238Z,4.5
2018-12-17T01:52:07.365Z,5.0
2018-12-17T01:53:07.130Z,4.6
2018-12-17T01:54:07.246Z,4.5
2018-12-17T01:55:07.402Z,4.3
2018-12-17T01:56:07.395Z,4.4
2018-12-17T01:57:07.423Z,4.6
2018-12-17T01:58:07.642Z,4.4
2018-12-17T01:59:07.644Z,4.7
2018-12-17T02:00:07.205Z,4.3
2018-12-17T02:01:07.704Z,4.9
2018-12-17T02:02:07.645Z,4.4
2018-12-17T02:03:07.431Z,4.5
2018-12-17T02:04:07.224Z,4.4
2018-12-17T02:05:07.642Z,4.7
2018-12-17T02:06:07.713Z,4.5
2018-12-17T02:07:07.233Z,4.3
2018-12-17T02:08:07.386Z,4.4
2018-12-17T02:09:07.690Z,4.5
2018-12-17T02:10:07.234Z,4.6
2018-12-17T02:11:07.276Z,4.1
2018-12-17T02:12:07.235Z,4.3
2018-12-17T02:13:07.232Z,4.1
2018-12-17T02:14:07.298Z,4.5
2018-12-17T02:15:07.212Z,4.3
2018-12-17T02:16:07.659Z,4.5
2018-12-17T02:17:07.413Z,4.4
2018-12-17T02:18:07.689Z,4.2
2018-12-17T02:19:07.680Z,4.4
2018-12-17T02:20:07.313Z,4.1
2018-12-17T02:21:07.289Z,4.1
2018-12-17T02:22:07.288Z,4.2
2018-12-17T02:23:07.244Z,4.2
2018-12-17T02:24:07.477Z,4.7
2018-12-17T02:25:07.245Z,4.5
2018-12-17T02:26:07.684Z,4.3
2018-12-17T02:27:07.248Z,4.4
2018-12-17T02:28:07.701Z,4.4
2018-12-17T02:29:07.237Z,4.3
2018-12-17T02:30:07.362Z,4.5
2018-12-17T02:31:07.699Z,4.0
2018-12-17T02:32:07.311Z,4.2
2018-12-17T02:33:07.750Z,4.4
2018-12-17T02:34:07.429Z,4.2
2018-12-17T02:35:07.420Z,4.3
2018-12-17T02:36:07.829Z,4.4
2018-12-17T02:37:07.693Z,4.4
2018-12-17T02:38:07.465Z,4.3
2018-12-17T02:39:07.355Z,4.6
2018-12-17T02:40:07.726Z,4.2
2018-12-17T02:41:07.721Z,4.2
2018-12-17T02:42:07.719Z,4.2
2018-12-17T02:43:07.498Z,4.4
2018-12-17T02:44:07.716Z,3.9
2018-12-17T02:45:07.478Z,4.3
2018-12-17T02:46:07.253Z,4.2
2018-12-17T02:47:07.287Z,4.2
2018-12-17T02:48:07.752Z,3.8
2018-12-17T02:49:07.358Z,4.2
2018-12-17T02:50:07.739Z,4.0
2018-12-17T02:51:07.732Z,4.1
2018-12-17T02:52:07.729Z,4.4
2018-12-17T02:53:07.293Z,4.2
2018-12-17T02:54:07.838Z,4.3
2018-12-17T02:55:07.447Z,4.3
2018-12-17T02:56:07.510Z,4.5
2018-12-17T02:57:07.280Z,4.1
2018-12-17T02:58:07.281Z,4.3
2018-12-17T02:59:07.747Z,4.2
2018-12-17T03:00:07.312Z,4.1
2018-12-17T03:01:07.271Z,4.1
2018-12-17T03:02:07.802Z,3.9
2018-12-17T03:03:07.345Z,4.1
2018-12-17T03:04:07.541Z,4.2
2018-12-17T03:05:07.530Z,3.8
2018-12-17T03:06:07.529Z,4.4
2018-12-17T03:07:07.780Z,4.0
2018-12-17T03:08:07.749Z,4.4
2018-12-17T03:09:07.579Z,4.0
2018-12-17T03:10:07.409Z,4.0
2018-12-17T03:11:07.345Z,4.3
2018-12-17T03:12:07.346Z,4.2
2018-12-17T03:13:07.583Z,4.0
2018-12-17T03:14:07.384Z,4.0
2018-12-17T03:15:07.541Z,4.1
2018-12-17T03:16:07.575Z,4.3
2018-12-17T03:17:07.757Z,4.0
2018-12-17T03:18:07.319Z,4.6
2018-12-17T03:19:07.318Z,4.1
2018-12-17T03:20:07.334Z,3.9
2018-12-17T03:21:07.804Z,4.1
2018-12-17T03:22:07.776Z,3.9
2018-12-17T03:23:07.383Z,3.8
2018-12-17T03:24:07.812Z,3.9
2018-12-17T03:25:07.368Z,4.0
2018-12-17T03:26:07.382Z,4.4
2018-12-17T03:27:07.561Z,4.2
2018-12-17T03:28:07.398Z,4.0
2018-12-17T03:29:07.372Z,3.8
2018-12-17T03:30:07.422Z,4.0
2018-12-17T03:31:07.458Z,4.0
2018-12-17T03:32:07.899Z,4.2
2018-12-17T03:33:07.360Z,3.7
2018-12-17T03:34:07.387Z,3.8
2018-12-17T03:35:07.413Z,4.3
2018-12-17T03:36:07.803Z,4.2
2018-12-17T03:37:07.394Z,4.1
2018-12-17T03:38:07.378Z,3.7
2018-12-17T03:39:07.823Z,3.9
2018-12-17T03:40:07.375Z,3.9
2018-12-17T03:41:07.820Z,3.9
2018-12-17T03:42:07.599Z,3.9
2018-12-17T03:43:07.417Z,4.1
2018-12-17T03:44:07.817Z,4.0
2018-12-17T03:45:07.604Z,3.7
2018-12-17T03:46:07.370Z,4.0
2018-12-17T03:47:07.586Z,3.7
2018-12-17T03:48:07.822Z,3.6
2018-12-17T03:49:07.648Z,3.7
2018-12-17T03:50:07.401Z,3.9
2018-12-17T03:51:07.384Z,3.8
2018-12-17T03:52:07.378Z,4.1
2018-12-17T03:53:07.615Z,4.0
2018-12-17T03:54:07.904Z,3.7
2018-12-17T03:55:07.471Z,3.9
2018-12-17T03:56:07.859Z,3.8
2018-12-17T03:57:07.464Z,3.6
2018-12-17T03:58:07.438Z,4.0
2018-12-17T03:59:07.877Z,3.8
2018-12-17T04:00:07.462Z,3.9
2018-12-17T04:01:07.459Z,4.0
2018-12-17T04:02:07.400Z,3.8
2018-12-17T04:03:07.386Z,3.9
2018-12-17T04:04:07.907Z,3.9
2018-12-17T04:05:07.944Z,3.8
2018-12-17T04:06:07.934Z,3.8
2018-12-17T04:07:07.890Z,3.5
2018-12-17T04:08:07.429Z,3.8
2018-12-17T04:09:07.500Z,3.7
2018-12-17T04:10:07.891Z,3.6
2018-12-17T04:11:07.427Z,3.8
2018-12-17T04:12:07.881Z,3.4
2018-12-17T04:13:07.468Z,3.7
2018-12-17T04:14:07.454Z,3.3
2018-12-17T04:15:07.426Z,3.8
2018-12-17T04:16:07.623Z,3.5
2018-12-17T04:17:07.864Z,3.9
2018-12-17T04:18:07.936Z,3.8
2018-12-17T04:19:07.456Z,3.6
2018-12-17T04:20:07.675Z,3.5
2018-12-17T04:21:07.480Z,3.5
2018-12-17T04:22:07.889Z,3.8
2018-12-17T04:23:07.659Z,3.8
2018-12-17T04:24:07.702Z,3.7
2018-12-17T04:25:07.505Z,3.7
2018-12-17T04:26:07.456Z,3.7
2018-12-17T04:27:07.494Z,3.4
2018-12-17T04:28:07.724Z,3.8
2018-12-17T04:29:07.499Z,3.2
2018-12-17T04:30:07.891Z,3.6
2018-12-17T04:31:07.519Z,3.3
2018-12-17T04:32:07.475Z,3.8
2018-12-17T04:33:07.510Z,3.5
2018-12-17T04:34:07.496Z,3.1
2018-12-17T04:35:07.763Z,3.5
2018-12-17T04:36:07.697Z,3.3
2018-12-17T04:37:07.947Z,3.6
2018-12-17T04:38:07.670Z,3.5
2018-12-17T04:39:07.580Z,3.4
2018-12-17T04:40:07.571Z,3.5
2018-12-17T04:41:07.448Z,3.5
2018-12-17T04:42:07.984Z,3.8
2018-12-17T04:43:07.516Z,3.5
2018-12-17T04:44:07.938Z,3.7
2018-12-17T04:45:07.515Z,3.8
2018-12-17T04:46:07.561Z,3.5
2018-12-17T04:47:07.948Z,3.6
2018-12-17T04:48:07.590Z,3.6
2018-12-17T04:49:07.669Z,3.5
2018-12-17T04:50:07.481Z,3.6
2018-12-17T04:51:07.711Z,3.3
2018-12-17T04:52:08.320Z,3.4
2018-12-17T04:53:07.940Z,3.7
2018-12-17T04:54:07.986Z,3.3
2018-12-17T04:55:07.755Z,3.2
2018-12-17T04:56:07.978Z,3.6
2018-12-17T04:57:07.603Z,3.3
2018-12-17T04:58:07.906Z,3.4
2018-12-17T04:59:14.407Z,3.5
2018-12-17T05:00:07.542Z,3.4
2018-12-17T05:01:07.578Z,3.4
2018-12-17T05:02:07.762Z,3.1
2018-12-17T05:03:07.562Z,3.3
2018-12-17T05:04:07.735Z,3.3
2018-12-17T05:05:07.795Z,3.6
2018-12-17T05:06:07.985Z,3.2
2018-12-17T05:07:07.539Z,3.6
2018-12-17T05:08:08.002Z,3.4
2018-12-17T05:09:07.770Z,3.5
2018-12-17T05:10:07.973Z,3.3
2018-12-17T05:11:07.803Z,3.4
2018-12-17T05:12:08.001Z,3.1
2018-12-17T05:13:07.574Z,3.4
2018-12-17T05:14:07.989Z,3.2
2018-12-17T05:15:07.978Z,3.2
2018-12-17T05:16:07.719Z,3.2
2018-12-17T05:17:07.580Z,3.3
2018-12-17T05:18:07.983Z,3.4
2018-12-17T05:19:08.017Z,3.2
2018-12-17T05:20:07.741Z,3.1
2018-12-17T05:21:07.576Z,3.2
2018-12-17T05:22:07.797Z,3.0
2018-12-17T05:23:07.996Z,3.2
2018-12-17T05:24:07.644Z,3.5
2018-12-17T05:25:07.831Z,3.1
2018-12-17T05:26:07.773Z,3.2
2018-12-17T05:27:08.079Z,2.9
2018-12-17T05:28:07.547Z,3.2
2018-12-17T05:29:07.565Z,3.1
2018-12-17T05:30:07.799Z,3.0
2018-12-17T05:31:07.735Z,3.2
2018-12-17T05:32:07.542Z,3.3
2018-12-17T05:33:07.927Z,3.2
2018-12-17T05:34:07.816Z,3.0
2018-12-17T05:35:08.032Z,3.2
2018-12-17T05:36:07.841Z,3.1
2018-12-17T05:37:08.039Z,3.1
2018-12-17T05:38:07.574Z,3.0
2018-12-17T05:39:08.380Z,2.9
2018-12-17T05:40:07.630Z,3.2
2018-12-17T05:41:07.636Z,2.9
2018-12-17T05:42:08.100Z,3.0
2018-12-17T05:43:07.858Z,3.0
2018-12-17T05:44:07.620Z,3.0
2018-12-17T05:45:07.857Z,3.4
2018-12-17T05:46:07.634Z,3.2
2018-12-17T05:47:07.834Z,2.8
2018-12-17T05:48:07.796Z,3.5
2018-12-17T05:49:07.665Z,2.9
2018-12-17T05:50:08.123Z,3.0
2018-12-17T05:51:07.835Z,3.1
2018-12-17T05:52:07.576Z,2.8
2018-12-17T05:53:08.098Z,3.1
2018-12-17T05:54:08.059Z,2.9
2018-12-17T05:55:07.696Z,2.9
2018-12-17T05:56:07.816Z,3.1
2018-12-17T05:57:07.846Z,3.0
2018-12-17T05:58:07.878Z,3.3
2018-12-17T05:59:07.589Z,3.2
2018-12-17T06:00:07.691Z,3.1
2018-12-17T06:01:07.880Z,3.1
2018-12-17T06:02:07.613Z,2.9
2018-12-17T06:03:08.080Z,2.9
2018-12-17T06:04:07.635Z,2.8
2018-12-17T06:05:07.688Z,3.1
2018-12-17T06:06:07.650Z,3.3
2018-12-17T06:07:07.937Z,3.1
2018-12-17T06:08:08.102Z,2.9
2018-12-17T06:09:07.948Z,3.2
2018-12-17T06:10:07.637Z,2.8
2018-12-17T06:11:07.644Z,3.0
2018-12-17T06:12:08.108Z,3.0
2018-12-17T06:13:07.664Z,3.0
2018-12-17T06:14:07.859Z,3.1
2018-12-17T06:15:07.615Z,3.2
2018-12-17T06:16:07.679Z,3.1
2018-12-17T06:17:07.630Z,3.0
2018-12-17T06:18:07.791Z,3.1
2018-12-17T06:19:07.679Z,3.1
2018-12-17T06:20:08.160Z,3.1
2018-12-17T06:21:07.875Z,2.9
2018-12-17T06:22:07.868Z,3.1
2018-12-17T06:23:08.193Z,2.8
2018-12-17T06:24:07.968Z,3.0
2018-12-17T06:25:07.811Z,3.1
2018-12-17T06:26:08.222Z,3.1
2018-12-17T06:27:07.992Z,3.0
2018-12-17T06:28:08.140Z,3.1
2018-12-17T06:29:08.632Z,3.2
2018-12-17T06:30:07.746Z,3.1
2018-12-17T06:31:07.734Z,3.3
2018-12-17T06:32:08.167Z,3.3
2018-12-17T06:33:08.186Z,3.1
2018-12-17T06:34:07.687Z,3.0
2018-12-17T06:35:08.255Z,3.2
2018-12-17T06:36:07.710Z,3.2
2018-12-17T06:37:07.739Z,3.2
2018-12-17T06:38:07.676Z,3.0
2018-12-17T06:39:08.177Z,3.0
2018-12-17T06:40:10.020Z,3.1
2018-12-17T06:41:08.191Z,3.2
2018-12-17T06:42:07.717Z,3.0
2018-12-17T06:43:08.204Z,3.1
2018-12-17T06:44:07.960Z,3.1
2018-12-17T06:45:07.713Z,3.2
2018-12-17T06:46:08.162Z,3.2
2018-12-17T06:47:07.681Z,3.1
2018-12-17T06:48:08.176Z,3.0
2018-12-17T06:49:07.724Z,3.2
2018-12-17T06:50:07.891Z,3.0
2018-12-17T06:51:07.776Z,3.0
2018-12-17T06:52:07.767Z,3.0
2018-12-17T06:53:08.153Z,3.3
2018-12-17T06:54:08.272Z,3.0
2018-12-17T06:55:07.958Z,3.1
2018-12-17T06:56:07.735Z,3.2
2018-12-17T06:57:08.195Z,3.1
2018-12-17T06:58:07.739Z,3.2
2018-12-17T06:59:07.794Z,3.3
2018-12-17T07:00:07.774Z,3.2
2018-12-17T07:01:07.742Z,3.1
2018-12-17T07:02:07.975Z,3.3
2018-12-17T07:03:07.731Z,3.6
2018-12-17T07:04:07.777Z,3.7
2018-12-17T07:05:07.769Z,3.1
2018-12-17T07:06:08.176Z,3.2
2018-12-17T07:07:07.763Z,3.3
2018-12-17T07:08:07.962Z,3.4
2018-12-17T07:09:07.823Z,3.3
2018-12-17T07:10:07.918Z,3.2
2018-12-17T07:11:08.210Z,3.2
2018-12-17T07:12:07.752Z,3.6
2018-12-17T07:13:07.745Z,3.7
2018-12-17T07:14:08.209Z,3.3
2018-12-17T07:15:07.759Z,3.6
2018-12-17T07:16:08.291Z,3.4
2018-12-17T07:17:08.217Z,3.4
2018-12-17T07:18:07.757Z,3.4
2018-12-17T07:19:07.766Z,4.2
2018-12-17T07:20:08.172Z,4.8
2018-12-17T07:21:07.780Z,4.7
2018-12-17T07:22:08.072Z,4.8
2018-12-17T07:23:08.229Z,5.0
2018-12-17T07:24:07.846Z,4.5
2018-12-17T07:25:08.019Z,6.2
2018-12-17T07:26:07.980Z,8.7
2018-12-17T07:27:08.287Z,5.5
2018-12-17T07:28:08.271Z,6.0
2018-12-17T07:29:08.000Z,4.5
2018-12-17T07:30:07.976Z,5.7
2018-12-17T07:31:08.379Z,4.4
2018-12-17T07:32:07.810Z,5.6
2018-12-17T07:33:08.085Z,4.6
2018-12-17T07:34:07.900Z,4.7
2018-12-17T07:35:07.849Z,5.7
2018-12-17T07:36:07.857Z,6.1
2018-12-17T07:37:07.826Z,4.5
2018-12-17T07:38:07.856Z,4.6
2018-12-17T07:39:07.929Z,4.6
2018-12-17T07:40:07.832Z,4.5
2018-12-17T07:41:07.848Z,4.6
2018-12-17T07:42:08.039Z,4.9
2018-12-17T07:43:07.896Z,5.4
2018-12-17T07:44:07.929Z,4.3
2018-12-17T07:45:07.817Z,4.7
2018-12-17T07:46:07.830Z,4.3
2018-12-17T07:47:08.268Z,4.4
2018-12-17T07:48:08.068Z,4.1
2018-12-17T07:49:08.295Z,4.2
2018-12-17T07:50:08.070Z,4.1
2018-12-17T07:51:07.865Z,4.4
2018-12-17T07:52:07.840Z,5.0
2018-12-17T07:53:08.291Z,4.3
2018-12-17T07:54:08.336Z,4.3
2018-12-17T07:55:07.834Z,4.2
2018-12-17T07:56:08.007Z,4.2
2018-12-17T07:57:07.831Z,5.0
2018-12-17T07:58:07.875Z,3.9
2018-12-17T07:59:08.113Z,4.3
2018-12-17T08:00:08.072Z,4.1
2018-12-17T08:01:08.058Z,4.1
2018-12-17T08:02:07.889Z,4.1
2018-12-17T08:03:07.844Z,6.1
2018-12-17T08:04:08.376Z,4.1
2018-12-17T08:05:08.252Z,4.3
2018-12-17T08:06:07.858Z,3.9
2018-12-17T08:07:08.143Z,3.8
2018-12-17T08:08:07.875Z,4.9
2018-12-17T08:09:08.003Z,3.8
2018-12-17T08:10:07.867Z,3.7
2018-12-17T08:11:07.921Z,4.1
2018-12-17T08:12:08.310Z,4.2
2018-12-17T08:13:07.888Z,3.8
2018-12-17T08:14:08.365Z,4.1
2018-12-17T08:15:08.085Z,3.8
2018-12-17T08:16:08.171Z,3.5
2018-12-17T08:17:08.091Z,3.6
2018-12-17T08:18:08.095Z,4.0
2018-12-17T08:19:08.306Z,3.6
2018-12-17T08:20:08.085Z,3.6
2018-12-17T08:21:07.926Z,3.7
2018-12-17T08:22:08.131Z,3.4
2018-12-17T08:23:08.371Z,3.3
2018-12-17T08:24:08.025Z,3.6
2018-12-17T08:25:09.709Z,4.2
2018-12-17T08:26:08.384Z,3.5
2018-12-17T08:27:08.165Z,3.6
2018-12-17T08:28:08.068Z,3.7
2018-12-17T08:29:07.934Z,3.9
2018-12-17T08:30:08.185Z,4.3
2018-12-17T08:31:07.932Z,3.6
2018-12-17T08:32:09.246Z,3.6
2018-12-17T08:33:08.420Z,3.7
2018-12-17T08:34:07.927Z,3.6
2018-12-17T08:35:08.470Z,3.7
2018-12-17T08:36:07.980Z,3.5
2018-12-17T08:37:08.118Z,3.2
2018-12-17T08:38:07.931Z,3.6
2018-12-17T08:39:07.995Z,3.5
2018-12-17T08:40:08.545Z,3.6
2018-12-17T08:41:07.967Z,3.4
2018-12-17T08:42:08.499Z,3.4
2018-12-17T08:43:07.960Z,3.6
2018-12-17T08:44:08.339Z,3.5
2018-12-17T08:45:07.901Z,3.4
2018-12-17T08:46:08.002Z,4.3
2018-12-17T08:47:07.975Z,4.2
2018-12-17T08:48:08.022Z,4.5
2018-12-17T08:49:08.059Z,3.8
2018-12-17T08:50:08.000Z,3.9
2018-12-17T08:51:08.108Z,3.6
2018-12-17T08:52:08.254Z,3.9
2018-12-17T08:53:08.292Z,3.4
2018-12-17T08:54:08.294Z,3.9
2018-12-17T08:55:08.456Z,4.8
2018-12-17T08:56:07.972Z,3.7
2018-12-17T08:57:08.635Z,3.6
2018-12-17T08:58:08.143Z,3.7
2018-12-17T08:59:08.002Z,5.6
2018-12-17T09:00:11.001Z,3.4
2018-12-17T09:01:08.266Z,3.9
2018-12-17T09:02:08.491Z,3.4
2018-12-17T09:03:08.231Z,3.8
2018-12-17T09:04:08.173Z,4.0
2018-12-17T09:05:08.047Z,4.0
2018-12-17T09:06:07.966Z,3.8
2018-12-17T09:07:08.667Z,3.7
2018-12-17T09:08:08.428Z,3.7
2018-12-17T09:09:08.260Z,4.0
2018-12-17T09:10:08.008Z,4.4
2018-12-17T09:11:08.259Z,3.7
2018-12-17T09:12:07.990Z,4.1
2018-12-17T09:13:08.059Z,4.1
2018-12-17T09:14:07.986Z,3.8
2018-12-17T09:15:08.260Z,4.2
2018-12-17T09:16:08.069Z,4.9
2018-12-17T09:17:08.137Z,4.4
2018-12-17T09:18:08.010Z,5.7
2018-12-17T09:19:08.039Z,5.4
2018-12-17T09:20:08.356Z,5.6
2018-12-17T09:21:08.216Z,6.6
2018-12-17T09:22:08.048Z,6.7
2018-12-17T09:23:08.244Z,5.5
2018-12-17T09:24:08.111Z,6.8
2018-12-17T09:25:09.051Z,5.0
2018-12-17T09:26:08.461Z,6.1
2018-12-17T09:27:08.066Z,5.1
2018-12-17T09:28:07.991Z,5.1
2018-12-17T09:29:08.164Z,6.4
2018-12-17T09:30:08.222Z,4.9
2018-12-17T09:31:08.313Z,4.9
2018-12-17T09:32:08.249Z,5.1
2018-12-17T09:33:08.089Z,4.2
2018-12-17T09:34:08.269Z,5.8
2018-12-17T09:35:08.523Z,4.7
2018-12-17T09:36:08.991Z,4.2
2018-12-17T09:37:08.251Z,4.8
2018-12-17T09:38:08.025Z,3.8
2018-12-17T09:39:08.162Z,4.1
2018-12-17T09:40:08.700Z,4.3
2018-12-17T09:41:08.275Z,4.3
2018-12-17T09:42:08.103Z,4.6
2018-12-17T09:43:08.523Z,4.0
2018-12-17T09:44:08.094Z,4.2
2018-12-17T09:45:08.551Z,4.2
2018-12-17T09:46:08.071Z,3.9
2018-12-17T09:47:08.210Z,3.7
2018-12-17T09:48:08.073Z,5.8
2018-12-17T09:49:08.323Z,4.3
2018-12-17T09:50:08.118Z,3.8
2018-12-17T09:51:08.082Z,5.1
2018-12-17T09:52:08.015Z,4.6
2018-12-17T09:53:08.288Z,4.0
2018-12-17T09:54:08.123Z,3.9
2018-12-17T09:55:08.168Z,4.3
2018-12-17T09:56:08.040Z,4.0
2018-12-17T09:57:08.257Z,3.5
2018-12-17T09:58:08.328Z,4.3
2018-12-17T09:59:08.747Z,4.7
2018-12-17T10:00:08.568Z,4.6
2018-12-17T10:01:08.715Z,6.4
2018-12-17T10:02:08.561Z,5.2
2018-12-17T10:03:08.428Z,4.1
2018-12-17T10:04:08.297Z,4.2
2018-12-17T10:05:08.328Z,5.6
2018-12-17T10:06:08.217Z,4.0
2018-12-17T10:07:08.139Z,5.1
2018-12-17T10:08:08.502Z,5.3
2018-12-17T10:09:08.653Z,4.7
2018-12-17T10:10:08.088Z,4.2
2018-12-17T10:11:08.358Z,5.4
2018-12-17T10:12:08.798Z,4.2
2018-12-17T10:13:08.656Z,8.1
2018-12-17T10:14:08.092Z,4.3
2018-12-17T10:15:08.417Z,5.0
2018-12-17T10:16:08.125Z,4.1
2018-12-17T10:17:08.162Z,3.8
2018-12-17T10:18:08.325Z,4.8
2018-12-17T10:19:08.421Z,4.1
2018-12-17T10:20:08.165Z,4.3
2018-12-17T10:21:08.588Z,3.9
2018-12-17T10:22:08.280Z,5.2
2018-12-17T10:23:08.681Z,4.1
2018-12-17T10:24:08.422Z,4.3
2018-12-17T10:25:08.245Z,3.9
2018-12-17T10:26:08.116Z,4.3
2018-12-17T10:27:08.181Z,3.4
2018-12-17T10:28:08.156Z,4.1
2018-12-17T10:29:08.205Z,3.8
2018-12-17T10:30:08.606Z,3.6
2018-12-17T10:31:08.223Z,3.5
2018-12-17T10:32:08.625Z,3.8
2018-12-17T10:33:08.192Z,3.3
2018-12-17T10:34:08.563Z,3.5
2018-12-17T10:35:09.278Z,3.6
2018-12-17T10:36:08.159Z,3.5
2018-12-17T10:37:08.394Z,4.7
2018-12-17T10:38:08.586Z,3.5
2018-12-17T10:39:08.825Z,3.4
2018-12-17T10:40:08.350Z,4.6
2018-12-17T10:41:08.630Z,4.0
2018-12-17T10:42:08.205Z,3.7
2018-12-17T10:43:08.638Z,3.1
2018-12-17T10:44:08.164Z,3.4
2018-12-17T10:45:08.242Z,3.6
2018-12-17T10:46:08.178Z,3.2
2018-12-17T10:47:08.372Z,3.8
2018-12-17T10:48:08.583Z,3.3
2018-12-17T10:49:08.174Z,3.5
2018-12-17T10:50:08.208Z,4.0
2018-12-17T10:51:08.707Z,3.6
2018-12-17T10:52:08.636Z,3.1
2018-12-17T10:53:09.223Z,3.2
2018-12-17T10:54:08.665Z,3.2
2018-12-17T10:55:09.489Z,3.3
2018-12-17T10:56:09.879Z,3.1
2018-12-17T10:57:08.248Z,3.4
2018-12-17T10:58:08.240Z,2.9
2018-12-17T10:59:08.225Z,2.8
2018-12-17T11:00:08.377Z,3.3
2018-12-17T11:01:08.636Z,3.2
2018-12-17T11:02:08.199Z,3.1
2018-12-17T11:03:08.447Z,3.3
2018-12-17T11:04:08.217Z,3.1
2018-12-17T11:05:08.661Z,3.7
2018-12-17T11:06:08.171Z,2.7
2018-12-17T11:07:08.395Z,2.6
2018-12-17T11:08:08.629Z,3.1
2018-12-17T11:09:08.371Z,3.0
2018-12-17T11:10:08.671Z,3.1
2018-12-17T11:11:08.681Z,2.9
2018-12-17T11:12:08.393Z,2.7
2018-12-17T11:13:08.235Z,2.9
2018-12-17T11:14:08.677Z,3.4
2018-12-17T11:15:08.188Z,3.0
2018-12-17T11:16:08.430Z,3.7
2018-12-17T11:17:08.237Z,2.8
2018-12-17T11:18:08.668Z,2.7
2018-12-17T11:19:08.176Z,2.6
2018-12-17T11:20:08.726Z,2.7
2018-12-17T11:21:08.667Z,3.4
2018-12-17T11:22:08.466Z,2.7
2018-12-17T11:23:08.412Z,2.7
2018-12-17T11:24:08.698Z,3.1
2018-12-17T11:25:08.275Z,3.1
2018-12-17T11:26:08.220Z,2.5
2018-12-17T11:27:08.709Z,2.3
2018-12-17T11:28:08.300Z,2.6
2018-12-17T11:29:08.224Z,2.9
2018-12-17T11:30:08.382Z,2.6
2018-12-17T11:31:08.236Z,2.5
2018-12-17T11:32:11.443Z,2.5
2018-12-17T11:33:08.244Z,2.5
2018-12-17T11:34:09.149Z,2.8
2018-12-17T11:35:08.311Z,2.7
2018-12-17T11:36:08.265Z,2.6
2018-12-17T11:37:08.316Z,2.4
2018-12-17T11:38:08.260Z,2.9
2018-12-17T11:39:08.382Z,2.5
2018-12-17T11:40:08.302Z,2.5
2018-12-17T11:41:08.756Z,2.4
2018-12-17T11:42:08.302Z,2.4
2018-12-17T11:43:08.307Z,2.1
2018-12-17T11:44:08.288Z,2.5
2018-12-17T11:45:08.275Z,2.3
2018-12-17T11:46:08.296Z,2.8
2018-12-17T11:47:08.266Z,2.2
2018-12-17T11:48:08.279Z,2.5
2018-12-17T11:49:08.448Z,2.3
2018-12-17T11:50:08.269Z,2.0
2018-12-17T11:51:08.481Z,2.3
2018-12-17T11:52:08.275Z,2.4
2018-12-17T11:53:08.462Z,2.4
2018-12-17T11:54:18.467Z,2.0
2018-12-17T11:55:08.524Z,2.2
2018-12-17T11:56:08.547Z,2.2
2018-12-17T11:57:08.460Z,2.3
2018-12-17T11:58:08.728Z,2.1
2018-12-17T11:59:08.284Z,2.4
2018-12-17T12:00:08.727Z,2.2
2018-12-17T12:01:08.734Z,2.3
2018-12-17T12:02:09.117Z,2.0
2018-12-17T12:03:08.335Z,2.7
2018-12-17T12:04:08.750Z,2.8
2018-12-17T12:05:08.396Z,4.0
2018-12-17T12:06:13.638Z,4.7
2018-12-17T12:07:08.763Z,3.7
2018-12-17T12:08:08.734Z,2.9
2018-12-17T12:09:08.770Z,2.6
2018-12-17T12:10:08.365Z,2.7
2018-12-17T12:11:08.814Z,2.8
2018-12-17T12:12:08.583Z,2.4
2018-12-17T12:13:08.393Z,2.2
2018-12-17T12:14:09.189Z,3.4
2018-12-17T12:15:09.660Z,2.5
2018-12-17T12:16:08.339Z,3.8
2018-12-17T12:17:12.599Z,2.4
2018-12-17T12:18:08.494Z,2.2
2018-12-17T12:19:08.377Z,3.6
2018-12-17T12:20:08.461Z,2.6
2018-12-17T12:21:08.831Z,2.9
2018-12-17T12:22:08.322Z,3.6
2018-12-17T12:23:08.580Z,2.6
2018-12-17T12:24:08.810Z,3.3
2018-12-17T12:25:08.825Z,2.2
2018-12-17T12:26:08.358Z,3.5
2018-12-17T12:27:08.349Z,2.3
2018-12-17T12:28:08.398Z,2.1
2018-12-17T12:29:08.340Z,1.8
2018-12-17T12:30:08.360Z,2.0
2018-12-17T12:31:08.335Z,2.0
2018-12-17T12:32:08.556Z,2.6
2018-12-17T12:33:08.335Z,3.1
2018-12-17T12:34:08.577Z,2.9
2018-12-17T12:35:08.432Z,2.6
2018-12-17T12:36:08.426Z,2.6
2018-12-17T12:37:08.619Z,2.2
2018-12-17T12:38:08.483Z,3.5
2018-12-17T12:39:08.494Z,2.5
2018-12-17T12:40:08.848Z,2.3
2018-12-17T12:41:08.448Z,1.9
2018-12-17T12:42:08.364Z,2.3
2018-12-17T12:43:08.443Z,1.7
2018-12-17T12:44:08.934Z,2.6
2018-12-17T12:45:08.419Z,1.9
2018-12-17T12:46:08.434Z,2.5
2018-12-17T12:47:08.858Z,2.7
2018-12-17T12:48:08.619Z,2.1
2018-12-17T12:49:08.883Z,2.6
2018-12-17T12:50:08.680Z,2.2
2018-12-17T12:51:08.677Z,2.0
2018-12-17T12:52:08.851Z,1.8
2018-12-17T12:53:08.450Z,2.1
2018-12-17T12:54:08.566Z,1.8
2018-12-17T12:55:08.482Z,1.9
2018-12-17T12:56:08.879Z,3.3
2018-12-17T12:57:08.699Z,2.0
2018-12-17T12:58:08.888Z,2.2
2018-12-17T12:59:08.479Z,2.1
2018-12-17T13:00:08.486Z,1.5
2018-12-17T13:01:08.543Z,2.0
2018-12-17T13:02:08.476Z,2.2
2018-12-17T13:03:08.475Z,2.4
2018-12-17T13:04:08.949Z,2.0
2018-12-17T13:05:08.753Z,2.3
2018-12-17T13:06:08.861Z,2.1
2018-12-17T13:07:09.363Z,1.8
2018-12-17T13:08:08.650Z,1.4
2018-12-17T13:09:08.573Z,2.5
2018-12-17T13:10:08.675Z,1.7
2018-12-17T13:11:08.466Z,2.2
2018-12-17T13:12:08.370Z,2.6
2018-12-17T13:13:08.868Z,1.9
2018-12-17T13:14:08.848Z,2.4
2018-12-17T13:15:08.444Z,3.7
2018-12-17T13:16:08.428Z,2.3
2018-12-17T13:17:08.466Z,3.0
2018-12-17T13:18:08.861Z,2.2
2018-12-17T13:19:08.700Z,2.6
2018-12-17T13:20:09.238Z,2.1
2018-12-17T13:21:08.655Z,2.2
2018-12-17T13:22:08.885Z,2.3
2018-12-17T13:23:08.763Z,1.8
2018-12-17T13:24:08.617Z,2.0
2018-12-17T13:25:08.442Z,1.7
2018-12-17T13:26:08.423Z,2.6
2018-12-17T13:27:08.887Z,2.2
2018-12-17T13:28:08.873Z,2.8
2018-12-17T13:29:08.625Z,2.5
2018-12-17T13:30:08.465Z,2.6
2018-12-17T13:31:14.387Z,1.7
2018-12-17T13:32:08.466Z,2.5
2018-12-17T13:33:08.436Z,2.6
2018-12-17T13:34:08.441Z,2.3
2018-12-17T13:35:08.625Z,2.1
2018-12-17T13:36:08.674Z,1.6
2018-12-17T13:37:08.912Z,1.7
2018-12-17T13:38:08.446Z,2.4
2018-12-17T13:39:08.608Z,2.0
2018-12-17T13:40:08.437Z,1.8
2018-12-17T13:41:08.652Z,2.5
2018-12-17T13:42:08.706Z,2.3
2018-12-17T13:43:08.495Z,2.0
2018-12-17T13:44:08.923Z,3.4
2018-12-17T13:45:08.469Z,2.6
2018-12-17T13:46:08.488Z,2.0